createdAt,value
2022-11-05T00:01:02.238Z,4.85
2022-11-05T00:04:05.875Z,4.85
2022-11-05T00:07:11.193Z,4.81
2022-11-05T00:10:19.769Z,4.77
2022-11-05T00:13:26.156Z,4.71
2022-11-05T00:16:29.783Z,4.67
2022-11-05T00:19:16.686Z,4.66
2022-11-05T00:22:20.542Z,4.61
2022-11-05T00:25:14.654Z,4.60
2022-11-05T00:28:03.813Z,4.61
2022-11-05T00:30:49.165Z,4.61
2022-11-05T00:33:34.265Z,4.48
2022-11-05T00:36:19.184Z,4.58
2022-11-05T00:39:05.815Z,4.55
2022-11-05T00:42:10.676Z,4.51
2022-11-05T00:45:01.882Z,4.53
2022-11-05T00:48:05.971Z,4.54
2022-11-05T00:50:51.307Z,4.54
2022-11-05T00:53:36.544Z,4.54
2022-11-05T00:56:21.577Z,4.59
2022-11-05T00:59:06.542Z,4.59
2022-11-05T01:01:51.858Z,4.58
2022-11-05T01:04:37.123Z,4.58
2022-11-05T01:07:22.201Z,4.50
2022-11-05T01:10:07.718Z,4.44
2022-11-05T01:12:52.672Z,4.59
2022-11-05T01:15:38.766Z,4.60
2022-11-05T01:18:25.274Z,4.55
2022-11-05T01:21:15.741Z,4.53
2022-11-05T01:24:01.244Z,4.49
2022-11-05T01:26:46.282Z,4.60
2022-11-05T01:29:31.454Z,4.63
2022-11-05T01:32:16.502Z,4.65
2022-11-05T01:35:02.185Z,4.68
2022-11-05T01:37:47.548Z,4.72
2022-11-05T01:40:32.461Z,4.75
2022-11-05T01:43:20.694Z,4.74
2022-11-05T01:46:05.845Z,4.73
2022-11-05T01:48:57.288Z,4.81
2022-11-05T01:51:46.070Z,4.96
2022-11-05T01:54:34.720Z,5.03
2022-11-05T01:57:20.128Z,4.98
2022-11-05T02:00:06.010Z,4.97
2022-11-05T02:02:50.980Z,4.89
2022-11-05T02:05:37.036Z,4.96
2022-11-05T02:08:45.877Z,4.95
2022-11-05T02:11:30.839Z,4.95
2022-11-05T02:14:16.089Z,4.84
2022-11-05T02:17:08.196Z,4.92
2022-11-05T02:20:06.335Z,4.93
2022-11-05T02:23:19.542Z,4.95
2022-11-05T02:26:22.861Z,4.96
2022-11-05T02:29:20.042Z,4.94
2022-11-05T02:32:07.901Z,4.94
2022-11-05T02:35:22.865Z,4.88
2022-11-05T02:38:13.091Z,4.86
2022-11-05T02:41:41.734Z,4.86
2022-11-05T02:44:44.904Z,4.88
2022-11-05T02:47:42.782Z,4.84
2022-11-05T02:50:37.220Z,4.81
2022-11-05T02:53:31.498Z,4.79
2022-11-05T02:56:24.053Z,4.69
2022-11-05T02:59:09.121Z,4.86
2022-11-05T03:01:55.181Z,4.84
2022-11-05T03:04:40.903Z,4.81
2022-11-05T03:07:44.855Z,4.78
2022-11-05T03:10:49.588Z,4.76
2022-11-05T03:13:59.162Z,4.73
2022-11-05T03:16:53.934Z,4.67
2022-11-05T03:19:54.158Z,4.54
2022-11-05T03:22:47.293Z,4.65
2022-11-05T03:25:38.902Z,4.64
2022-11-05T03:28:27.840Z,4.59
2022-11-05T03:31:14.737Z,4.61
2022-11-05T03:34:02.159Z,4.52
2022-11-05T03:36:52.080Z,4.54
2022-11-05T03:39:48.065Z,4.62
2022-11-05T03:42:36.989Z,4.60
2022-11-05T03:45:26.611Z,4.62
2022-11-05T03:48:14.191Z,4.62
2022-11-05T03:51:17.728Z,4.62
2022-11-05T03:54:04.875Z,4.61
2022-11-05T03:57:01.287Z,4.62
2022-11-05T03:59:49.019Z,4.63
2022-11-05T04:02:34.406Z,4.67
2022-11-05T04:05:19.551Z,4.65
2022-11-05T04:08:43.239Z,4.68
2022-11-05T04:11:46.971Z,4.70
2022-11-05T04:14:32.244Z,4.72
2022-11-05T04:17:17.484Z,4.72
2022-11-05T04:20:21.115Z,4.72
2022-11-05T04:23:25.323Z,4.74
2022-11-05T04:26:10.474Z,4.65
2022-11-05T04:29:14.355Z,4.76
2022-11-05T04:31:59.684Z,4.70
2022-11-05T04:34:44.800Z,4.73
2022-11-05T04:37:30.139Z,4.84
2022-11-05T04:40:15.105Z,4.85
2022-11-05T04:43:00.463Z,4.84
2022-11-05T04:45:45.733Z,4.89
2022-11-05T04:48:31.035Z,4.89
2022-11-05T04:51:16.831Z,4.91
2022-11-05T04:54:01.684Z,4.88
2022-11-05T04:56:46.927Z,4.85
2022-11-05T04:59:31.933Z,4.91
2022-11-05T05:02:16.876Z,4.91
2022-11-05T05:05:03.108Z,4.95
2022-11-05T05:07:48.131Z,4.94
2022-11-05T05:10:33.032Z,4.92
2022-11-05T05:13:17.999Z,4.92
2022-11-05T05:16:08.075Z,4.90
2022-11-05T05:18:54.175Z,4.78
2022-11-05T05:21:39.373Z,4.90
2022-11-05T05:24:24.950Z,4.91
2022-11-05T05:27:10.192Z,4.93
2022-11-05T05:29:59.446Z,4.96
2022-11-05T05:32:44.584Z,4.98
2022-11-05T05:35:30.048Z,4.98
2022-11-05T05:38:14.896Z,4.98
2022-11-05T05:41:00.643Z,5.08
2022-11-05T05:43:45.719Z,5.11
2022-11-05T05:46:30.941Z,5.12
2022-11-05T05:49:16.248Z,5.13
2022-11-05T05:52:01.091Z,5.10
2022-11-05T05:54:45.940Z,5.04
2022-11-05T05:57:30.891Z,5.00
2022-11-05T06:00:16.124Z,5.03
2022-11-05T06:03:01.140Z,5.05
2022-11-05T06:05:46.337Z,5.10
2022-11-05T06:08:31.984Z,5.15
2022-11-05T06:11:17.148Z,5.04
2022-11-05T06:14:02.343Z,5.13
2022-11-05T06:16:47.303Z,5.11
2022-11-05T06:19:32.255Z,5.11
2022-11-05T06:22:17.231Z,5.13
2022-11-05T06:25:02.647Z,5.16
2022-11-05T06:27:47.890Z,5.17
2022-11-05T06:30:33.153Z,5.15
2022-11-05T06:33:18.390Z,5.11
2022-11-05T06:36:04.919Z,5.16
2022-11-05T06:38:50.130Z,5.11
2022-11-05T06:41:45.662Z,5.15
2022-11-05T06:44:40.304Z,5.22
2022-11-05T06:47:25.232Z,5.28
2022-11-05T06:50:10.512Z,5.25
2022-11-05T06:53:00.829Z,5.23
2022-11-05T06:55:47.827Z,5.31
2022-11-05T06:58:33.812Z,5.18
2022-11-05T07:01:19.225Z,5.28
2022-11-05T07:04:04.480Z,5.23
2022-11-05T07:06:49.708Z,5.23
2022-11-05T07:09:38.432Z,5.25
2022-11-05T07:12:23.399Z,5.24
2022-11-05T07:15:09.613Z,5.38
2022-11-05T07:17:59.793Z,5.34
2022-11-05T07:20:44.726Z,5.30
2022-11-05T07:23:29.702Z,5.33
2022-11-05T07:26:14.995Z,5.36
2022-11-05T07:29:00.373Z,5.41
2022-11-05T07:31:46.937Z,5.42
2022-11-05T07:34:32.458Z,5.38
2022-11-05T07:37:17.563Z,5.51
2022-11-05T07:40:03.180Z,5.39
2022-11-05T07:42:50.815Z,5.56
2022-11-05T07:45:36.014Z,5.59
2022-11-05T07:48:21.014Z,5.55
2022-11-05T07:51:06.207Z,5.52
2022-11-05T07:53:51.167Z,5.61
2022-11-05T07:56:36.663Z,5.61
2022-11-05T07:59:21.672Z,5.59
2022-11-05T08:02:09.845Z,5.55
2022-11-05T08:04:55.208Z,5.55
2022-11-05T08:07:40.293Z,5.63
2022-11-05T08:10:25.824Z,5.65
2022-11-05T08:13:12.941Z,5.56
2022-11-05T08:15:58.533Z,5.68
2022-11-05T08:18:44.620Z,5.78
2022-11-05T08:21:30.938Z,5.79
2022-11-05T08:24:15.788Z,5.83
2022-11-05T08:27:00.677Z,5.86
2022-11-05T08:29:45.953Z,5.90
2022-11-05T08:32:31.031Z,5.93
2022-11-05T08:35:15.902Z,5.95
2022-11-05T08:38:03.144Z,6.12
2022-11-05T08:40:57.417Z,6.45
2022-11-05T08:43:42.375Z,6.28
2022-11-05T08:46:27.415Z,6.19
2022-11-05T08:49:12.287Z,6.16
2022-11-05T08:51:57.569Z,6.10
2022-11-05T08:54:43.605Z,5.99
2022-11-05T08:57:28.709Z,6.07
2022-11-05T09:00:15.153Z,6.01
2022-11-05T09:03:04.133Z,6.17
2022-11-05T09:05:49.103Z,6.14
2022-11-05T09:08:34.365Z,6.25
2022-11-05T09:11:19.449Z,6.28
2022-11-05T09:14:04.416Z,6.25
2022-11-05T09:16:49.429Z,6.39
2022-11-05T09:19:39.398Z,6.43
2022-11-05T09:22:24.766Z,6.44
2022-11-05T09:25:10.134Z,6.56
2022-11-05T09:28:14.632Z,6.63
2022-11-05T09:31:06.065Z,6.59
2022-11-05T09:33:50.835Z,6.72
2022-11-05T09:36:35.878Z,6.72
2022-11-05T09:39:20.963Z,6.79
2022-11-05T09:42:11.746Z,6.84
2022-11-05T09:45:13.423Z,6.90
2022-11-05T09:48:15.735Z,6.91
2022-11-05T09:51:00.931Z,6.97
2022-11-05T09:53:46.567Z,6.90
2022-11-05T09:56:37.280Z,7.02
2022-11-05T09:59:43.520Z,7.01
2022-11-05T10:02:33.150Z,7.27
2022-11-05T10:05:18.786Z,7.27
2022-11-05T10:08:29.743Z,7.32
2022-11-05T10:11:57.092Z,7.38
2022-11-05T10:14:47.615Z,7.44
2022-11-05T10:17:39.160Z,7.55
2022-11-05T10:20:31.123Z,7.64
2022-11-05T10:23:22.304Z,7.49
2022-11-05T10:26:13.496Z,7.59
2022-11-05T10:28:58.856Z,7.60
2022-11-05T10:31:44.521Z,7.60
2022-11-05T10:34:33.624Z,7.61
2022-11-05T10:37:20.452Z,7.64
2022-11-05T10:40:14.033Z,7.67
2022-11-05T10:43:09.868Z,7.55
2022-11-05T10:45:59.778Z,7.74
2022-11-05T10:49:06.551Z,7.80
2022-11-05T10:52:00.407Z,7.82
2022-11-05T10:54:46.906Z,7.88
2022-11-05T10:57:38.061Z,7.95
2022-11-05T11:00:28.315Z,8.04
2022-11-05T11:03:43.246Z,8.16
2022-11-05T11:06:31.460Z,8.27
2022-11-05T11:09:35.705Z,8.27
2022-11-05T11:12:24.538Z,8.50
2022-11-05T11:15:32.762Z,8.60
2022-11-05T11:18:26.150Z,8.71
2022-11-05T11:21:16.533Z,8.85
2022-11-05T11:24:04.753Z,8.91
2022-11-05T11:26:50.146Z,8.90
2022-11-05T11:29:41.125Z,9.08
2022-11-05T11:32:36.137Z,9.23
2022-11-05T11:35:23.988Z,9.31
2022-11-05T11:38:16.250Z,9.69
2022-11-05T11:41:09.189Z,10.06
2022-11-05T11:43:59.827Z,10.27
2022-11-05T11:46:49.508Z,10.38
2022-11-05T11:50:00.470Z,10.47
2022-11-05T11:52:45.455Z,10.53
2022-11-05T11:55:30.802Z,10.60
2022-11-05T11:58:15.801Z,10.66
2022-11-05T12:01:13.307Z,10.77
2022-11-05T12:04:10.336Z,10.85
2022-11-05T12:07:20.095Z,10.92
2022-11-05T12:10:23.998Z,10.97
2022-11-05T12:13:33.345Z,11.01
2022-11-05T12:16:29.987Z,11.05
2022-11-05T12:19:43.655Z,11.07
2022-11-05T12:23:05.867Z,11.08
2022-11-05T12:26:03.968Z,11.07
2022-11-05T12:29:18.804Z,11.07
2022-11-05T12:32:04.111Z,10.98
2022-11-05T12:35:18.889Z,11.08
2022-11-05T12:38:25.476Z,11.10
2022-11-05T12:41:37.009Z,11.07
2022-11-05T12:44:40.609Z,11.10
2022-11-05T12:47:31.448Z,11.11
2022-11-05T12:50:31.224Z,11.02
2022-11-05T12:53:31.643Z,11.03
2022-11-05T12:56:30.422Z,11.16
2022-11-05T12:59:28.494Z,11.17
2022-11-05T13:02:25.985Z,11.10
2022-11-05T13:05:24.711Z,11.20
2022-11-05T13:08:23.319Z,11.22
2022-11-05T13:11:19.775Z,11.23
2022-11-05T13:14:14.877Z,11.14
2022-11-05T13:17:10.799Z,11.25
2022-11-05T13:20:19.131Z,11.27
2022-11-05T13:23:18.943Z,11.20
2022-11-05T13:26:27.242Z,11.27
2022-11-05T13:29:20.252Z,11.22
2022-11-05T13:32:26.551Z,11.23
2022-11-05T13:35:24.465Z,11.17
2022-11-05T13:38:37.096Z,11.17
2022-11-05T13:41:35.116Z,11.11
2022-11-05T13:44:38.358Z,11.15
2022-11-05T13:47:50.425Z,11.11
2022-11-05T13:50:51.038Z,10.92
2022-11-05T13:53:45.336Z,11.11
2022-11-05T13:56:55.251Z,11.15
2022-11-05T14:00:02.118Z,11.17
2022-11-05T14:03:16.295Z,11.18
2022-11-05T14:06:10.903Z,11.13
2022-11-05T14:09:00.575Z,11.04
2022-11-05T14:11:52.060Z,11.14
2022-11-05T14:14:58.438Z,11.11
2022-11-05T14:18:02.576Z,11.14
2022-11-05T14:21:26.042Z,11.11
2022-11-05T14:24:23.429Z,11.12
2022-11-05T14:27:09.775Z,11.13
2022-11-05T14:29:55.545Z,11.14
2022-11-05T14:32:48.613Z,11.04
2022-11-05T14:35:38.484Z,11.16
2022-11-05T14:38:28.230Z,11.19
2022-11-05T14:41:13.680Z,11.21
2022-11-05T14:44:04.964Z,11.24
2022-11-05T14:46:53.244Z,11.30
2022-11-05T14:49:50.996Z,11.24
2022-11-05T14:52:38.437Z,11.31
2022-11-05T14:55:36.063Z,11.32
2022-11-05T14:58:28.891Z,11.22
2022-11-05T15:01:14.044Z,11.24
2022-11-05T15:04:37.169Z,11.35
2022-11-05T15:07:22.133Z,11.23
2022-11-05T15:10:14.214Z,11.23
2022-11-05T15:13:06.031Z,11.39
2022-11-05T15:15:51.833Z,11.39
2022-11-05T15:18:44.007Z,11.39
2022-11-05T15:21:34.393Z,11.38
2022-11-05T15:24:20.393Z,11.37
2022-11-05T15:27:26.708Z,11.38
2022-11-05T15:30:21.529Z,11.41
2022-11-05T15:33:19.491Z,11.41
2022-11-05T15:36:27.965Z,11.45
2022-11-05T15:39:33.658Z,11.40
2022-11-05T15:42:22.362Z,11.48
2022-11-05T15:45:20.503Z,11.30
2022-11-05T15:48:19.253Z,11.48
2022-11-05T15:51:04.823Z,11.49
2022-11-05T15:54:23.701Z,11.47
2022-11-05T15:56:57.935Z,11.41
2022-11-05T15:59:47.056Z,11.45
2022-11-05T16:02:34.916Z,11.47
2022-11-05T16:05:20.854Z,11.48
2022-11-05T16:08:06.297Z,11.46
2022-11-05T16:10:54.991Z,11.51
2022-11-05T16:13:41.678Z,11.52
2022-11-05T16:16:33.887Z,11.52
2022-11-05T16:19:40.565Z,11.52
2022-11-05T16:22:43.648Z,11.47
2022-11-05T16:25:38.180Z,11.50
2022-11-05T16:28:25.686Z,11.52
2022-11-05T16:31:11.054Z,11.52
2022-11-05T16:33:57.070Z,11.55
2022-11-05T16:36:42.258Z,11.48
2022-11-05T16:39:27.574Z,11.55
2022-11-05T16:42:21.944Z,11.38
2022-11-05T16:45:10.113Z,11.53
2022-11-05T16:47:55.412Z,11.56
2022-11-05T16:50:42.240Z,11.56
2022-11-05T16:53:27.326Z,11.57
2022-11-05T16:56:21.076Z,11.48
2022-11-05T16:59:08.680Z,11.48
2022-11-05T17:01:56.020Z,11.63
2022-11-05T17:04:41.175Z,11.65
2022-11-05T17:07:27.487Z,11.67
2022-11-05T17:10:12.909Z,11.64
2022-11-05T17:12:57.863Z,11.62
2022-11-05T17:15:44.940Z,11.58
2022-11-05T17:18:30.200Z,11.67
2022-11-05T17:21:15.449Z,11.63
2022-11-05T17:24:00.415Z,11.67
2022-11-05T17:26:45.410Z,11.67
2022-11-05T17:29:30.561Z,11.64
2022-11-05T17:32:15.485Z,11.73
2022-11-05T17:35:00.529Z,11.73
2022-11-05T17:37:46.251Z,11.74
2022-11-05T17:40:34.666Z,11.75
2022-11-05T17:43:20.571Z,11.74
2022-11-05T17:46:08.967Z,11.77
2022-11-05T17:48:54.101Z,11.79
2022-11-05T17:51:39.481Z,11.70
2022-11-05T17:54:24.779Z,11.81
2022-11-05T17:57:10.192Z,11.72
2022-11-05T17:59:55.719Z,11.81
2022-11-05T18:02:41.029Z,11.81
2022-11-05T18:05:27.847Z,11.84
2022-11-05T18:08:13.086Z,11.87
2022-11-05T18:10:58.243Z,11.84
2022-11-05T18:13:43.517Z,11.86
2022-11-05T18:16:28.788Z,11.87
2022-11-05T18:19:13.872Z,11.88
2022-11-05T18:21:58.774Z,11.88
2022-11-05T18:24:44.461Z,11.89
2022-11-05T18:27:29.740Z,11.85
2022-11-05T18:30:15.899Z,11.91
2022-11-05T18:33:01.221Z,11.82
2022-11-05T18:35:46.518Z,11.92
2022-11-05T18:38:31.581Z,11.93
2022-11-05T18:41:16.826Z,11.93
2022-11-05T18:44:02.898Z,11.94
2022-11-05T18:46:58.220Z,11.88
2022-11-05T18:49:43.881Z,11.94
2022-11-05T18:52:31.514Z,11.98
2022-11-05T18:55:16.470Z,11.96
2022-11-05T18:58:01.766Z,11.99
2022-11-05T19:00:46.622Z,11.81
2022-11-05T19:03:31.917Z,11.99
2022-11-05T19:06:18.080Z,12.02
2022-11-05T19:09:05.190Z,12.03
2022-11-05T19:11:50.902Z,11.86
2022-11-05T19:14:36.417Z,11.95
2022-11-05T19:17:21.606Z,11.97
2022-11-05T19:20:07.444Z,12.08
2022-11-05T19:22:52.362Z,12.08
2022-11-05T19:25:37.874Z,11.99
2022-11-05T19:28:23.463Z,12.13
2022-11-05T19:31:14.183Z,11.96
2022-11-05T19:33:59.455Z,12.13
2022-11-05T19:36:44.383Z,12.13
2022-11-05T19:39:29.557Z,12.08
2022-11-05T19:42:14.444Z,12.17
2022-11-05T19:45:16.714Z,12.13
2022-11-05T19:48:05.589Z,12.06
2022-11-05T19:50:50.560Z,12.17
2022-11-05T19:53:37.710Z,12.10
2022-11-05T19:56:29.613Z,12.18
2022-11-05T19:59:15.094Z,12.19
2022-11-05T20:02:00.380Z,12.20
2022-11-05T20:04:45.845Z,12.18
2022-11-05T20:07:31.142Z,12.05
2022-11-05T20:10:16.657Z,12.22
2022-11-05T20:13:01.962Z,12.25
2022-11-05T20:15:47.331Z,12.27
2022-11-05T20:18:32.751Z,12.25
2022-11-05T20:21:18.828Z,12.28
2022-11-05T20:24:04.299Z,12.22
2022-11-05T20:26:49.658Z,12.26
2022-11-05T20:29:35.797Z,12.22
2022-11-05T20:32:21.244Z,12.26
2022-11-05T20:35:06.532Z,12.34
2022-11-05T20:37:54.086Z,12.36
2022-11-05T20:40:39.835Z,12.37
2022-11-05T20:43:30.137Z,12.28
2022-11-05T20:46:17.910Z,12.36
2022-11-05T20:49:03.341Z,12.37
2022-11-05T20:51:48.513Z,12.36
2022-11-05T20:54:43.513Z,12.36
2022-11-05T20:57:28.540Z,12.39
2022-11-05T21:00:14.482Z,12.39
2022-11-05T21:02:59.592Z,12.41
2022-11-05T21:05:46.648Z,12.33
2022-11-05T21:08:33.117Z,12.41
2022-11-05T21:11:19.138Z,12.43
2022-11-05T21:14:04.151Z,12.44
2022-11-05T21:16:49.154Z,12.45
2022-11-05T21:19:35.169Z,12.45
2022-11-05T21:22:20.323Z,12.46
2022-11-05T21:25:06.067Z,12.47
2022-11-05T21:27:51.343Z,12.48
2022-11-05T21:30:38.177Z,12.51
2022-11-05T21:33:23.528Z,12.52
2022-11-05T21:36:11.064Z,12.51
2022-11-05T21:38:56.267Z,12.53
2022-11-05T21:41:42.610Z,12.47
2022-11-05T21:44:27.807Z,12.54
2022-11-05T21:47:13.059Z,12.52
2022-11-05T21:49:58.227Z,12.54
2022-11-05T21:53:01.890Z,12.55
2022-11-05T21:56:10.172Z,12.46
2022-11-05T21:59:14.000Z,12.57
2022-11-05T22:02:02.528Z,12.49
2022-11-05T22:04:51.647Z,12.58
2022-11-05T22:07:39.192Z,12.61
2022-11-05T22:10:23.988Z,12.61
2022-11-05T22:13:09.001Z,12.63
2022-11-05T22:15:55.521Z,12.65
2022-11-05T22:18:40.430Z,12.49
2022-11-05T22:21:25.786Z,12.57
2022-11-05T22:24:11.124Z,12.60
2022-11-05T22:26:56.096Z,12.68
2022-11-05T22:29:41.455Z,12.68
2022-11-05T22:32:26.590Z,12.70
2022-11-05T22:35:11.621Z,12.69
2022-11-05T22:37:57.075Z,12.70
2022-11-05T22:40:42.381Z,12.66
2022-11-05T22:43:27.171Z,12.63
2022-11-05T22:46:18.578Z,12.73
2022-11-05T22:49:04.010Z,12.76
2022-11-05T22:51:50.318Z,12.76
2022-11-05T22:54:39.281Z,12.77
2022-11-05T22:57:24.663Z,12.78
2022-11-05T23:00:17.067Z,12.78
2022-11-05T23:03:03.074Z,12.69
2022-11-05T23:05:57.359Z,12.79
2022-11-05T23:09:00.800Z,12.79
2022-11-05T23:11:49.815Z,12.79
2022-11-05T23:14:36.510Z,12.78
2022-11-05T23:17:40.188Z,12.74
2022-11-05T23:20:44.047Z,12.79
2022-11-05T23:23:47.951Z,12.80
2022-11-05T23:26:49.916Z,12.73
2022-11-05T23:29:34.916Z,12.82
2022-11-05T23:32:26.981Z,12.72
2022-11-05T23:35:12.917Z,12.80
2022-11-05T23:38:16.695Z,12.82
2022-11-05T23:41:21.638Z,12.82
2022-11-05T23:44:27.532Z,12.84
2022-11-05T23:47:31.426Z,12.82
2022-11-05T23:50:16.748Z,12.84
2022-11-05T23:53:01.899Z,12.84
2022-11-05T23:55:47.223Z,12.84
2022-11-05T23:58:33.006Z,12.83
